Time,TemperatureF,DewpointF,PressureIn,WindDirection,WindDirectionDegrees,WindSpeedMPH,WindSpeedGustMPH,Humidity,HourlyPrecipIn,Conditions,Clouds,dailyrainin,SoftwareType,DateUTC
2019-06-17 00:03:58,78.3,73.77,30.08,SE,144,0,0,86,0,,-RA,0,VWS V15.00,2019-06-17 04:03:58,
2019-06-17 00:08:58,78.3,73.77,30.08,SE,144,0,0,86,0,,-RA,0,VWS V15.00,2019-06-17 04:08:58,
2019-06-17 00:14:03,78.3,74.12,30.07,SE,144,0,0,87,0,,-RA,0,VWS V15.00,2019-06-17 04:14:03,
2019-06-17 00:19:04,78.3,74.12,30.08,SE,143,0,0,87,0,,-RA,0,VWS V15.00,2019-06-17 04:19:04,
2019-06-17 00:24:03,78.3,74.12,30.08,SE,142,0,0,87,0,,CLR,0,VWS V15.00,2019-06-17 04:24:03,
2019-06-17 00:29:04,78.3,74.12,30.08,SE,140,0,0,87,0,,CLR,0,VWS V15.00,2019-06-17 04:29:04,
2019-06-17 00:34:04,78.4,74.21,30.07,SE,143,0,0,87,0,,CLR,0,VWS V15.00,2019-06-17 04:34:04,
2019-06-17 00:39:03,78.4,74.21,30.07,SE,143,0,0,87,0,,CLR,0,VWS V15.00,2019-06-17 04:39:03,
2019-06-17 00:44:13,78.4,74.56,30.07,SE,143,0,0,88,0,,CLR,0,VWS V15.00,2019-06-17 04:44:13,
2019-06-17 00:49:14,78.4,74.56,30.07,SE,143,0,0,88,0,,CLR,0,VWS V15.00,2019-06-17 04:49:14,
2019-06-17 00:54:13,78.4,74.56,30.07,SE,142,0,0,88,0,,CLR,0,VWS V15.00,2019-06-17 04:54:13,
2019-06-17 00:59:14,78.3,74.46,30.07,SE,140,0,0,88,0,,CLR,0,VWS V15.00,2019-06-17 04:59:14,
2019-06-17 01:04:19,78.3,74.46,30.07,SE,143,0,0,88,0,,CLR,0,VWS V15.00,2019-06-17 05:04:19,
2019-06-17 01:09:18,78.2,74.36,30.07,SE,143,0,0,88,0,,CLR,0,VWS V15.00,2019-06-17 05:09:18,
2019-06-17 01:14:19,78.1,74.6,30.06,SE,141,0,0,89,0,,CLR,0,VWS V15.00,2019-06-17 05:14:19,
2019-06-17 01:19:23,78,74.83,30.07,SE,138,0,0,90,0,,SCT110,0,VWS V15.00,2019-06-17 05:19:23,
2019-06-17 01:24:23,78,74.83,30.06,SE,139,0,0,90,0,,SCT110,0,VWS V15.00,2019-06-17 05:24:23,
2019-06-17 01:29:24,77.9,74.4,30.07,SE,144,0,0,89,0,,SCT110,0,VWS V15.00,2019-06-17 05:29:24,
2019-06-17 01:34:24,77.7,73.87,30.06,SE,144,0,0,88,0,,SCT110,0,VWS V15.00,2019-06-17 05:34:24,
2019-06-17 01:39:29,77.7,74.2,30.07,SE,144,0,0,89,0,,SCT110,0,VWS V15.00,2019-06-17 05:39:29,
2019-06-17 01:44:29,77.6,74.1,30.07,SE,145,0,0,89,0,,SCT110,0,VWS V15.00,2019-06-17 05:44:29,
2019-06-17 01:49:28,77.6,74.1,30.07,SE,145,0,0,89,0,,SCT110,0,VWS V15.00,2019-06-17 05:49:28,
2019-06-17 01:54:33,77.6,74.1,30.06,SE,145,0,0,89,0,,SCT110,0,VWS V15.00,2019-06-17 05:54:33,
2019-06-17 01:59:33,77.5,74.01,30.06,SE,145,0,0,89,0,,SCT110,0,VWS V15.00,2019-06-17 05:59:33,
2019-06-17 02:04:34,77.4,73.91,30.06,SE,145,0,0,89,0,,SCT110,0,VWS V15.00,2019-06-17 06:04:34,
2019-06-17 02:09:39,77.4,73.91,30.06,SE,145,0,0,89,0,,SCT110,0,VWS V15.00,2019-06-17 06:09:39,
2019-06-17 02:14:37,77.4,73.91,30.06,SE,145,0,0,89,0,,SCT110,0,VWS V15.00,2019-06-17 06:14:37,
2019-06-17 02:19:37,77.3,73.81,30.06,SE,145,0,0,89,0,,SCT110,0,VWS V15.00,2019-06-17 06:19:37,
2019-06-17 02:24:42,77.2,73.71,30.06,SE,145,0,0,89,0,,FEW110,0,VWS V15.00,2019-06-17 06:24:42,
2019-06-17 02:29:42,77.2,73.71,30.06,SE,145,0,0,89,0,,FEW110,0,VWS V15.00,2019-06-17 06:29:42,
2019-06-17 02:34:42,77.2,73.71,30.06,SE,145,0,0,89,0,,FEW110,0,VWS V15.00,2019-06-17 06:34:42,
2019-06-17 02:39:42,77.2,74.04,30.05,SE,145,0,0,90,0,,FEW110,0,VWS V15.00,2019-06-17 06:39:42,
2019-06-17 02:44:47,77.1,73.94,30.05,SE,145,0,0,90,0,,FEW110,0,VWS V15.00,2019-06-17 06:44:47,
2019-06-17 02:49:47,77.1,73.94,30.05,SE,145,0,0,90,0,,FEW110,0,VWS V15.00,2019-06-17 06:49:47,
2019-06-17 02:54:47,77.1,73.94,30.05,SE,145,0,0,90,0,,FEW110,0,VWS V15.00,2019-06-17 06:54:47,
2019-06-17 02:59:52,77,73.85,30.05,SE,144,0,0,90,0,,FEW110,0,VWS V15.00,2019-06-17 06:59:52,
2019-06-17 03:04:52,77,73.85,30.05,SE,144,0,0,90,0,,FEW110,0,VWS V15.00,2019-06-17 07:04:52,
2019-06-17 03:09:52,77,73.85,30.05,SE,144,0,0,90,0,,FEW110,0,VWS V15.00,2019-06-17 07:09:52,
2019-06-17 03:14:52,77,73.85,30.05,SE,143,0,0,90,0,,FEW110,0,VWS V15.00,2019-06-17 07:14:52,
2019-06-17 03:19:57,77,73.85,30.05,SE,144,0,0,90,0,,BKN110,0,VWS V15.00,2019-06-17 07:19:57,
2019-06-17 03:23:57,77,73.85,30.05,SE,144,0,0,90,0,,BKN110,0,VWS V15.00,2019-06-17 07:23:57,
2019-06-17 03:28:57,77,73.85,30.05,SE,144,0,0,90,0,,BKN110,0,VWS V15.00,2019-06-17 07:28:57,
2019-06-17 03:34:02,77,74.18,30.05,SE,144,0,0,91,0,,BKN110,0,VWS V15.00,2019-06-17 07:34:02,
2019-06-17 03:39:02,77,74.18,30.05,SE,144,0,0,91,0,,BKN110,0,VWS V15.00,2019-06-17 07:39:02,
2019-06-17 03:44:02,76.9,74.08,30.05,SE,144,0,0,91,0,,BKN110,0,VWS V15.00,2019-06-17 07:44:02,
2019-06-17 03:49:02,76.9,74.08,30.05,SE,144,0,0,91,0,,BKN110,0,VWS V15.00,2019-06-17 07:49:02,
2019-06-17 03:54:02,76.9,74.08,30.05,SE,144,0,0,91,0,,BKN110,0,VWS V15.00,2019-06-17 07:54:02,
2019-06-17 03:59:01,76.9,74.08,30.05,SE,144,0,0,91,0,,BKN110,0,VWS V15.00,2019-06-17 07:59:01,
2019-06-17 04:04:11,76.9,74.08,30.05,SE,144,0,0,91,0,,BKN110,0,VWS V15.00,2019-06-17 08:04:11,
2019-06-17 04:09:11,76.8,73.98,30.06,SE,144,0,0,91,0,,BKN110,0,VWS V15.00,2019-06-17 08:09:11,
2019-06-17 04:14:12,76.8,73.98,30.05,SE,144,0,0,91,0,,BKN110,0,VWS V15.00,2019-06-17 08:14:12,
2019-06-17 04:19:12,76.8,73.98,30.05,SE,144,0,0,91,0,,BKN110,0,VWS V15.00,2019-06-17 08:19:12,
2019-06-17 04:24:17,76.8,74.3,30.04,SE,144,0,0,92,0,,BKN110,0,VWS V15.00,2019-06-17 08:24:17,
2019-06-17 04:29:17,76.7,73.88,30.05,SE,144,0,0,91,0,,BKN110,0,VWS V15.00,2019-06-17 08:29:17,
2019-06-17 04:34:16,76.8,74.3,30.05,SE,144,0,0,92,0,,BKN110,0,VWS V15.00,2019-06-17 08:34:16,
2019-06-17 04:39:22,76.8,74.3,30.04,SE,144,0,0,92,0,,BKN110,0,VWS V15.00,2019-06-17 08:39:22,
2019-06-17 04:44:22,76.9,74.4,30.05,SE,144,0,0,92,0,,BKN110,0,VWS V15.00,2019-06-17 08:44:22,
2019-06-17 04:49:22,76.9,74.4,30.05,SE,144,0,0,92,0,,BKN110,0,VWS V15.00,2019-06-17 08:49:22,
2019-06-17 04:54:27,76.9,74.4,30.04,SE,144,0,0,92,0,,BKN110,0,VWS V15.00,2019-06-17 08:54:27,
2019-06-17 04:59:27,77,74.5,30.05,SE,144,0,0,92,0,,BKN110,0,VWS V15.00,2019-06-17 08:59:27,
2019-06-17 05:04:27,77.1,74.92,30.04,SE,144,0,0,93,0,,BKN110,0,VWS V15.00,2019-06-17 09:04:27,
2019-06-17 05:09:32,77.2,75.02,30.05,SE,144,0,0,93,0,,BKN110,0,VWS V15.00,2019-06-17 09:09:32,
2019-06-17 05:14:32,77.2,75.02,30.05,SE,144,0,0,93,0,,BKN110,0,VWS V15.00,2019-06-17 09:14:32,
2019-06-17 05:19:32,77.2,75.02,30.05,SE,145,0,0,93,0,,CLR,0,VWS V15.00,2019-06-17 09:19:32,
2019-06-17 05:24:32,77.4,74.9,30.05,SE,145,0,0,92,0,,CLR,0,VWS V15.00,2019-06-17 09:24:32,
2019-06-17 05:29:37,77.4,75.22,30.05,SE,145,0,0,93,0,,CLR,0,VWS V15.00,2019-06-17 09:29:37,
2019-06-17 05:34:37,77.6,75.42,30.06,SE,145,0,0,93,0,,CLR,0,VWS V15.00,2019-06-17 09:34:37,
2019-06-17 05:39:37,77.6,75.42,30.06,SE,145,0,0,93,0,,CLR,0,VWS V15.00,2019-06-17 09:39:37,
2019-06-17 05:44:42,77.6,75.42,30.06,SE,145,0,0,93,0,,CLR,0,VWS V15.00,2019-06-17 09:44:42,
2019-06-17 05:49:42,77.7,75.52,30.05,SE,145,0,0,93,0,,CLR,0,VWS V15.00,2019-06-17 09:49:42,
2019-06-17 05:54:42,77.7,75.52,30.06,SE,145,0,0,93,0,,CLR,0,VWS V15.00,2019-06-17 09:54:42,
2019-06-17 05:59:47,77.7,75.52,30.05,SE,145,0,0,93,0,,CLR,0,VWS V15.00,2019-06-17 09:59:47,
2019-06-17 06:04:47,78,76.14,30.06,ESE,104,3,12,94,0,,CLR,0,VWS V15.00,2019-06-17 10:04:47,
2019-06-17 06:09:47,77.7,75.19,30.06,East,95,5,19,92,0,,CLR,0,VWS V15.00,2019-06-17 10:09:47,
2019-06-17 06:14:52,77.2,74.37,30.06,ESE,119,10,19,91,0,,CLR,0,VWS V15.00,2019-06-17 10:14:52,
2019-06-17 06:19:52,76.8,73.98,30.06,ESE,103,9,19,91,0,,SCT055,0,VWS V15.00,2019-06-17 10:19:52,
2019-06-17 06:24:52,76.6,74.11,30.07,NE,39,0,19,92,0,,SCT055,0,VWS V15.00,2019-06-17 10:24:52,
2019-06-17 06:29:52,76.5,74.33,30.06,NE,45,0,19,93,0,,SCT055,0,VWS V15.00,2019-06-17 10:29:52,
2019-06-17 06:34:57,76.4,74.23,30.06,NE,48,0,19,93,0,,SCT055,0,VWS V15.00,2019-06-17 10:34:57,
2019-06-17 06:39:57,76.4,74.23,30.06,ESE,107,3,19,93,0,,SCT055,0,VWS V15.00,2019-06-17 10:39:57,
2019-06-17 06:43:57,76.3,74.13,30.07,ESE,116,4,19,93,0,,SCT055,0,VWS V15.00,2019-06-17 10:43:57,
2019-06-17 06:49:02,76.2,74.03,30.06,ESE,106,6,19,93,0,,SCT055,0,VWS V15.00,2019-06-17 10:49:02,
2019-06-17 06:54:02,76.2,74.03,30.06,ESE,117,0,19,93,0,,SCT055,0,VWS V15.00,2019-06-17 10:54:02,
2019-06-17 06:59:02,76.1,73.93,30.06,ESE,107,5,19,93,0,,SCT055,0,VWS V15.00,2019-06-17 10:59:02,
2019-06-17 07:04:02,76.1,73.93,30.06,ESE,120,0,6,93,0,,SCT055,0,VWS V15.00,2019-06-17 11:04:02,
2019-06-17 07:09:02,76,73.51,30.06,ESE,119,0,6,92,0,,SCT055,0,VWS V15.00,2019-06-17 11:09:02,
2019-06-17 07:14:11,76,73.51,30.07,ESE,108,0,6,92,0,,SCT055,0,VWS V15.00,2019-06-17 11:14:11,
2019-06-17 07:19:12,75.9,73.41,30.07,ESE,119,0,6,92,0,,SCT120,0,VWS V15.00,2019-06-17 11:19:12,
2019-06-17 07:24:12,75.9,73.41,30.07,ESE,117,0,6,92,0,,SCT120,0,VWS V15.00,2019-06-17 11:24:12,
2019-06-17 07:29:11,75.9,73.41,30.07,ESE,120,0,6,92,0,,SCT120,0,VWS V15.00,2019-06-17 11:29:11,
2019-06-17 07:34:17,75.9,73.41,30.07,ESE,121,0,6,92,0,,SCT120,0,VWS V15.00,2019-06-17 11:34:17,
2019-06-17 07:39:17,75.9,73.09,30.09,ESE,121,0,6,91,0,,SCT120,0,VWS V15.00,2019-06-17 11:39:17,
2019-06-17 07:44:17,76,73.19,30.07,ESE,122,0,6,91,0,,SCT120,0,VWS V15.00,2019-06-17 11:44:17,
2019-06-17 07:49:21,76.1,73.29,30.09,ESE,122,0,6,91,0,,SCT120,0,VWS V15.00,2019-06-17 11:49:21,
2019-06-17 07:54:22,76.3,73.48,30.08,ESE,122,0,6,91,0,,SCT120,0,VWS V15.00,2019-06-17 11:54:22,
2019-06-17 07:59:22,76.5,73.68,30.08,ESE,122,0,6,91,0,,SCT120,0,VWS V15.00,2019-06-17 11:59:22,
2019-06-17 08:04:22,76.7,73.88,30.09,ESE,122,0,0,91,0,,SCT120,0,VWS V15.00,2019-06-17 12:04:22,
2019-06-17 08:09:27,77,74.5,30.09,ESE,122,0,0,92,0,,SCT120,0,VWS V15.00,2019-06-17 12:09:27,
2019-06-17 08:14:27,77.3,74.47,30.09,ESE,120,0,6,91,0,,SCT120,0,VWS V15.00,2019-06-17 12:14:27,
2019-06-17 08:19:26,77.6,74.77,30.09,ESE,119,0,6,91,0,,SCT120,0,VWS V15.00,2019-06-17 12:19:26,
2019-06-17 08:24:32,77.9,75.06,30.09,ESE,105,3,7,91,0,,BKN120,0,VWS V15.00,2019-06-17 12:24:32,
2019-06-17 08:29:32,78.2,75.36,30.10,ESE,112,0,7,91,0,,BKN120,0,VWS V15.00,2019-06-17 12:29:32,
2019-06-17 08:34:32,78.5,75.66,30.09,ESE,102,6,8,91,0,,BKN120,0,VWS V15.00,2019-06-17 12:34:32,
2019-06-17 08:39:37,78.8,75.62,30.09,ESE,105,3,8,90,0,,BKN120,0,VWS V15.00,2019-06-17 12:39:37,
2019-06-17 08:44:37,79.1,75.92,30.09,East,81,0,8,90,0,,BKN120,0,VWS V15.00,2019-06-17 12:44:37,
2019-06-17 08:49:37,79.2,75.68,30.09,ESE,114,2,10,89,0,,BKN120,0,VWS V15.00,2019-06-17 12:49:37,
2019-06-17 08:54:42,79.5,75.64,30.09,ESE,117,4,10,88,0,,BKN120,0,VWS V15.00,2019-06-17 12:54:42,
2019-06-17 08:59:42,79.9,76.03,30.09,ESE,102,3,10,88,0,,BKN120,0,VWS V15.00,2019-06-17 12:59:42,
2019-06-17 09:04:42,80.4,76.18,30.09,ESE,112,0,13,87,0,,BKN120,0,VWS V15.00,2019-06-17 13:04:42,
2019-06-17 09:09:42,80.6,76.38,30.09,ESE,113,10,13,87,0,,BKN120,0,VWS V15.00,2019-06-17 13:09:42,
2019-06-17 09:14:47,80.9,76.32,30.10,ESE,107,12,13,86,0,,BKN120,0,VWS V15.00,2019-06-17 13:14:47,
2019-06-17 09:19:47,81,76.42,30.10,ESE,107,4,13,86,0,,BKN120,0,VWS V15.00,2019-06-17 13:19:47,
2019-06-17 09:24:47,81.2,76.26,30.09,ESE,115,3,13,85,0,,CLR,0,VWS V15.00,2019-06-17 13:24:47,
2019-06-17 09:29:47,81.2,77.99,30.10,SE,143,0,13,90,0,,CLR,0,VWS V15.00,2019-06-17 13:29:47,
2019-06-17 09:34:52,81.2,75.91,30.09,ESE,107,6,13,84,0,,CLR,0,VWS V15.00,2019-06-17 13:34:52,
2019-06-17 09:39:52,81.1,75.45,30.09,ESE,117,6,13,83,0,,CLR,0,VWS V15.00,2019-06-17 13:39:52,
2019-06-17 09:44:51,81.1,75.45,30.09,ESE,106,8,13,83,0,,CLR,0,VWS V15.00,2019-06-17 13:44:51,
2019-06-17 09:49:57,81.1,75.45,30.10,ESE,112,4,13,83,0,,CLR,0,VWS V15.00,2019-06-17 13:49:57,
2019-06-17 09:54:57,81.2,75.55,30.10,SE,125,5,13,83,0,,CLR,0,VWS V15.00,2019-06-17 13:54:57,
2019-06-17 09:58:57,81.3,75.65,30.11,ESE,112,10,13,83,0,,CLR,0,VWS V15.00,2019-06-17 13:58:57,
2019-06-17 10:03:57,81.5,76.2,30.11,ESE,120,2,9,84,0,,CLR,0,VWS V15.00,2019-06-17 14:03:57,
2019-06-17 10:09:01,81.5,75.84,30.10,SSE,165,2,11,83,0,,CLR,0,VWS V15.00,2019-06-17 14:09:01,
2019-06-17 10:14:02,81.4,76.1,30.10,SE,126,0,12,84,0,,CLR,0,VWS V15.00,2019-06-17 14:14:02,
2019-06-17 10:19:02,81.3,75.65,30.11,SE,131,1,12,83,0,,SCT025,0,VWS V15.00,2019-06-17 14:19:02,
2019-06-17 10:24:02,81.2,76.26,30.11,ESE,110,4,12,85,0,,SCT025,0,VWS V15.00,2019-06-17 14:24:02,
2019-06-17 10:29:11,80.9,75.26,30.10,ENE,65,0,12,83,0,,SCT025,0,VWS V15.00,2019-06-17 14:29:11,
2019-06-17 10:34:12,81.1,75.81,30.10,ESE,110,7,12,84,0,,SCT025,0,VWS V15.00,2019-06-17 14:34:12,
2019-06-17 10:39:12,81,75.35,30.11,East,90,1,16,83,0,,SCT025,0,VWS V15.00,2019-06-17 14:39:12,
2019-06-17 10:44:12,80.8,75.16,30.11,East,80,6,16,83,0,,SCT025,0,VWS V15.00,2019-06-17 14:44:12,
2019-06-17 10:49:17,80.7,74.7,30.11,ESE,120,3,16,82,0,,SCT025,0,VWS V15.00,2019-06-17 14:49:17,
2019-06-17 10:54:17,80.7,75.06,30.12,East,99,2,16,83,0,,SCT025,0,VWS V15.00,2019-06-17 14:54:17,
2019-06-17 10:59:17,80.7,74.7,30.12,ESE,113,2,16,82,0,,SCT025,0,VWS V15.00,2019-06-17 14:59:17,
2019-06-17 11:04:22,80.8,75.16,30.12,ESE,103,0,6,83,0,,SCT025,0,VWS V15.00,2019-06-17 15:04:22,
2019-06-17 11:09:22,80.8,74.8,30.12,East,99,7,11,82,0,,SCT025,0,VWS V15.00,2019-06-17 15:09:22,
2019-06-17 11:14:22,80.5,74.87,30.13,ESE,115,3,11,83,0,,SCT025,0,VWS V15.00,2019-06-17 15:14:22,
2019-06-17 11:19:27,80.4,75.13,30.12,ESE,108,8,11,84,0,,OVC110,0,VWS V15.00,2019-06-17 15:19:27,
2019-06-17 11:24:27,80.3,75.03,30.12,East,96,6,11,84,0,,OVC110,0,VWS V15.00,2019-06-17 15:24:27,
2019-06-17 11:29:27,80.3,75.38,30.12,ESE,109,3,11,85,0,,OVC110,0,VWS V15.00,2019-06-17 15:29:27,
2019-06-17 11:34:27,80.4,75.13,30.13,SSE,153,2,13,84,0,,OVC110,0,VWS V15.00,2019-06-17 15:34:27,
2019-06-17 11:39:32,80.5,75.22,30.13,ESE,108,3,13,84,0,,OVC110,0,VWS V15.00,2019-06-17 15:39:32,
2019-06-17 11:44:32,80.4,75.13,30.12,SE,130,1,13,84,0,,OVC110,0,VWS V15.00,2019-06-17 15:44:32,
2019-06-17 11:49:32,80.5,74.87,30.14,ESE,111,3,13,83,0,,OVC110,0,VWS V15.00,2019-06-17 15:49:32,
2019-06-17 11:54:37,80.4,74.77,30.13,SE,144,3,13,83,0,,OVC110,0,VWS V15.00,2019-06-17 15:54:37,
2019-06-17 11:59:37,80.5,74.87,30.13,ESE,108,0,13,83,0,,OVC110,0,VWS V15.00,2019-06-17 15:59:37,
2019-06-17 12:04:37,80.7,75.06,30.12,ESE,118,6,10,83,0,,OVC110,0,VWS V15.00,2019-06-17 16:04:37,
2019-06-17 12:09:42,80.9,74.89,30.13,East,89,0,10,82,0,,OVC110,0,VWS V15.00,2019-06-17 16:09:42,
2019-06-17 12:14:42,81.2,75.19,30.12,ESE,112,6,10,82,0,,OVC110,0,VWS V15.00,2019-06-17 16:14:42,
2019-06-17 12:19:42,81.5,75.48,30.13,ESE,107,2,12,82,0,,OVC110,0,VWS V15.00,2019-06-17 16:19:42,
2019-06-17 12:24:47,81.7,75.67,30.12,East,99,1,12,82,0,,OVC110,0,VWS V15.00,2019-06-17 16:24:47,
2019-06-17 12:29:47,81.9,75.87,30.12,SE,133,0,12,82,0,,OVC110,0,VWS V15.00,2019-06-17 16:29:47,
2019-06-17 12:34:46,82.1,75.69,30.12,ESE,105,7,13,81,0,,OVC110,0,VWS V15.00,2019-06-17 16:34:46,
2019-06-17 12:39:52,82.4,76.36,30.12,ESE,107,4,13,82,0,,OVC110,0,VWS V15.00,2019-06-17 16:39:52,
2019-06-17 12:44:51,82.6,76.55,30.11,ESE,120,2,13,82,0,,OVC110,0,VWS V15.00,2019-06-17 16:44:51,
2019-06-17 12:49:52,82.9,76.84,30.12,ESE,123,7,14,82,0,,OVC110,0,VWS V15.00,2019-06-17 16:49:52,
2019-06-17 12:54:52,83,76.94,30.11,ESE,114,8,14,82,0,,OVC110,0,VWS V15.00,2019-06-17 16:54:52,
2019-06-17 12:59:57,83.1,77.04,30.12,ESE,119,10,14,82,0,,OVC110,0,VWS V15.00,2019-06-17 16:59:57,
2019-06-17 13:04:57,83.1,76.67,30.11,SE,124,2,16,81,0,,OVC110,0,VWS V15.00,2019-06-17 17:04:57,
2019-06-17 13:08:56,83.2,76.01,30.11,ESE,123,13,19,79,0,,OVC110,0,VWS V15.00,2019-06-17 17:08:56,
2019-06-17 13:13:57,83.4,76.21,30.11,ESE,107,12,24,79,0,,OVC110,0,VWS V15.00,2019-06-17 17:13:57,
2019-06-17 13:19:02,83.5,76.3,30.10,SE,132,10,24,79,0,,BKN050,0,VWS V15.00,2019-06-17 17:19:02,
2019-06-17 13:24:02,83.4,75.82,30.10,ESE,109,15,24,78,0,,BKN050,0,VWS V15.00,2019-06-17 17:24:02,
2019-06-17 13:29:02,83.2,76.01,30.10,East,96,4,24,79,0,,BKN050,0,VWS V15.00,2019-06-17 17:29:02,
2019-06-17 13:34:01,83,75.82,30.10,ESE,112,9,24,79,0,,BKN050,0,VWS V15.00,2019-06-17 17:34:01,
2019-06-17 13:39:02,83,76.2,30.10,ESE,122,5,24,80,0,,BKN050,0,VWS V15.00,2019-06-17 17:39:02,
2019-06-17 13:44:12,83.2,77.14,30.10,ESE,106,11,24,82,0,,BKN050,0,VWS V15.00,2019-06-17 17:44:12,
2019-06-17 13:49:12,83.2,76.77,30.10,ESE,115,11,24,81,0,,,0,VWS V15.00,2019-06-17 17:49:12,
2019-06-17 13:54:12,83.1,76.67,30.09,ESE,114,14,24,81,0,,,0,VWS V15.00,2019-06-17 17:54:12,
2019-06-17 13:59:11,82.8,76.38,30.09,SSE,168,7,24,81,0,,,0,VWS V15.00,2019-06-17 17:59:11,